createdAt,value
2019-02-09T00:03:37.221Z,5.80
2019-02-09T00:08:42.596Z,5.33
2019-02-09T00:13:52.495Z,5.80
2019-02-09T00:19:03.724Z,4.70
2019-02-09T00:24:09.040Z,4.80
2019-02-09T00:29:16.218Z,4.53
2019-02-09T00:34:25.324Z,4.03
2019-02-09T00:39:31.948Z,4.00
2019-02-09T00:44:40.340Z,5.57
2019-02-09T00:49:48.309Z,5.97
2019-02-09T00:54:56.108Z,6.07
2019-02-09T01:00:02.577Z,5.37
2019-02-09T01:05:10.906Z,5.43
2019-02-09T01:10:19.972Z,3.67
2019-02-09T01:15:27.343Z,4.47
2019-02-09T01:20:36.617Z,4.40
2019-02-09T01:25:49.060Z,3.37
2019-02-09T01:30:57.953Z,5.13
2019-02-09T01:36:05.485Z,6.53
2019-02-09T01:41:13.689Z,4.83
2019-02-09T01:46:21.580Z,5.47
2019-02-09T01:51:30.070Z,2.47
2019-02-09T01:56:36.840Z,5.63
2019-02-09T02:01:44.104Z,4.83
2019-02-09T02:06:53.044Z,6.73
2019-02-09T02:12:01.729Z,6.40
2019-02-09T02:17:08.925Z,5.03
2019-02-09T02:22:19.422Z,5.50
2019-02-09T02:27:26.592Z,4.17
2019-02-09T02:32:34.527Z,6.10
2019-02-09T02:37:46.016Z,2.17
2019-02-09T02:42:52.993Z,4.73
2019-02-09T02:48:01.169Z,7.17
2019-02-09T02:53:09.082Z,4.70
2019-02-09T02:58:18.045Z,3.67
2019-02-09T03:03:25.929Z,1.70
2019-02-09T03:08:32.584Z,3.33
2019-02-09T03:13:41.602Z,2.53
2019-02-09T03:18:50.404Z,4.70
2019-02-09T03:24:00.959Z,8.77
2019-02-09T03:29:08.867Z,8.20
2019-02-09T03:34:17.889Z,8.20
2019-02-09T03:39:31.853Z,8.30
2019-02-09T03:44:40.561Z,4.50
2019-02-09T03:49:50.279Z,13.10
2019-02-09T03:55:00.813Z,10.93
2019-02-09T04:00:10.944Z,9.80
2019-02-09T04:05:19.715Z,7.87
2019-02-09T04:10:29.342Z,9.20
2019-02-09T04:15:38.310Z,9.20
2019-02-09T04:20:46.474Z,11.97
2019-02-09T04:25:55.235Z,9.13
2019-02-09T04:31:05.927Z,9.00
2019-02-09T04:36:11.022Z,10.83
2019-02-09T04:41:20.761Z,11.00
2019-02-09T04:46:31.967Z,11.07
2019-02-09T04:51:40.017Z,13.83
2019-02-09T04:56:48.712Z,10.57
2019-02-09T05:01:57.378Z,12.50
2019-02-09T05:07:06.536Z,10.00
2019-02-09T05:12:17.930Z,12.80
2019-02-09T05:17:26.033Z,13.32
2019-02-09T05:22:31.780Z,7.33
2019-02-09T05:27:42.081Z,9.90
2019-02-09T05:32:50.536Z,11.17
2019-02-09T05:37:57.062Z,9.80
2019-02-09T05:43:05.832Z,8.60
2019-02-09T05:48:17.156Z,16.00
2019-02-09T05:53:24.718Z,14.53
2019-02-09T05:58:55.583Z,6.67
2019-02-09T06:04:06.142Z,14.17
2019-02-09T06:09:14.388Z,12.63
2019-02-09T06:14:23.599Z,15.40
2019-02-09T06:19:31.582Z,16.63
2019-02-09T06:24:40.224Z,14.20
2019-02-09T06:29:52.416Z,8.87
2019-02-09T06:35:01.219Z,13.80
2019-02-09T06:40:09.131Z,11.83
2019-02-09T06:45:18.474Z,12.53
2019-02-09T06:50:30.797Z,13.98
2019-02-09T06:55:36.660Z,11.30
2019-02-09T07:00:46.370Z,9.53
2019-02-09T07:05:55.425Z,7.30
2019-02-09T07:11:02.641Z,10.30
2019-02-09T07:16:12.459Z,14.43
2019-02-09T07:21:18.880Z,15.17
2019-02-09T07:26:28.562Z,18.32
2019-02-09T07:31:37.071Z,20.72
2019-02-09T07:36:45.378Z,16.73
2019-02-09T07:41:55.572Z,15.97
2019-02-09T07:47:03.088Z,23.20
2019-02-09T07:52:10.258Z,14.40
2019-02-09T07:57:21.637Z,18.97
2019-02-09T08:02:28.008Z,17.07
2019-02-09T08:07:36.441Z,14.63
2019-02-09T08:12:44.904Z,15.83
2019-02-09T08:17:51.820Z,17.57
2019-02-09T08:23:00.853Z,16.80
2019-02-09T08:28:09.284Z,16.37
2019-02-09T08:33:18.944Z,14.37
2019-02-09T08:38:28.281Z,18.50
2019-02-09T08:43:38.274Z,18.37
2019-02-09T08:48:48.419Z,16.20
2019-02-09T08:53:57.538Z,21.47
2019-02-09T08:59:04.125Z,13.50
2019-02-09T09:04:13.768Z,12.47
2019-02-09T09:09:28.449Z,19.27
2019-02-09T09:14:35.979Z,14.00
2019-02-09T09:19:43.061Z,12.40
2019-02-09T09:24:52.325Z,10.83
2019-02-09T09:29:59.691Z,16.00
2019-02-09T09:35:07.392Z,10.73
2019-02-09T09:40:19.018Z,14.67
2019-02-09T09:45:29.477Z,13.90
2019-02-09T09:50:39.968Z,17.40
2019-02-09T09:55:48.772Z,13.73
2019-02-09T10:00:58.542Z,15.27
2019-02-09T10:06:05.637Z,11.07
2019-02-09T10:11:11.678Z,14.30
2019-02-09T10:16:18.087Z,11.87
2019-02-09T10:21:27.916Z,15.32
2019-02-09T10:26:35.267Z,14.97
2019-02-09T10:31:43.143Z,15.80
2019-02-09T10:36:52.682Z,12.63
2019-02-09T10:42:01.023Z,14.40
2019-02-09T10:47:06.362Z,12.73
2019-02-09T10:52:13.664Z,16.67
2019-02-09T10:57:20.949Z,13.77
2019-02-09T11:02:28.043Z,13.70
2019-02-09T11:07:35.399Z,9.73
2019-02-09T11:12:46.766Z,10.70
2019-02-09T11:17:56.455Z,9.97
2019-02-09T11:23:04.633Z,9.07
2019-02-09T11:28:14.241Z,12.03
2019-02-09T11:33:21.392Z,9.55
2019-02-09T11:38:29.299Z,12.93
2019-02-09T11:43:36.533Z,10.37
2019-02-09T11:48:44.340Z,9.40
2019-02-09T11:53:53.507Z,8.97
2019-02-09T11:59:02.224Z,6.30
2019-02-09T12:04:08.679Z,7.83
2019-02-09T12:09:17.640Z,10.28
2019-02-09T12:14:27.949Z,7.60
2019-02-09T12:19:35.736Z,9.90
2019-02-09T12:24:43.782Z,8.10
2019-02-09T12:29:51.554Z,10.50
2019-02-09T12:35:02.016Z,7.60
2019-02-09T12:40:13.570Z,9.70
2019-02-09T12:45:20.661Z,11.40
2019-02-09T12:50:30.009Z,8.83
2019-02-09T12:55:39.655Z,13.57
2019-02-09T13:00:48.363Z,8.63
2019-02-09T13:05:56.369Z,15.20
2019-02-09T13:11:07.889Z,14.60
2019-02-09T13:16:14.291Z,10.90
2019-02-09T13:21:23.847Z,13.37
2019-02-09T13:26:30.705Z,13.00
2019-02-09T13:31:39.906Z,14.30
2019-02-09T13:36:51.017Z,10.70
2019-02-09T13:41:58.118Z,17.53
2019-02-09T13:47:05.004Z,17.50
2019-02-09T13:52:13.811Z,17.00
2019-02-09T13:57:21.569Z,17.20
2019-02-09T14:02:29.867Z,13.67
2019-02-09T14:07:38.121Z,13.17
2019-02-09T14:12:44.522Z,13.47
2019-02-09T14:17:50.445Z,17.07
2019-02-09T14:23:02.808Z,10.37
2019-02-09T14:28:12.420Z,11.90
2019-02-09T14:33:22.290Z,12.53
2019-02-09T14:38:33.173Z,10.13
2019-02-09T14:43:40.533Z,12.33
2019-02-09T14:48:52.297Z,14.60
2019-02-09T14:53:58.828Z,17.47
2019-02-09T14:59:06.185Z,12.67
2019-02-09T15:04:14.946Z,12.53
2019-02-09T15:09:24.516Z,10.53
2019-02-09T15:14:32.295Z,13.23
2019-02-09T15:19:42.299Z,12.93
2019-02-09T15:24:51.932Z,12.63
2019-02-09T15:30:00.473Z,10.33
2019-02-09T15:35:12.203Z,8.43
2019-02-09T15:40:20.910Z,12.43
2019-02-09T15:45:27.881Z,18.30
2019-02-09T15:50:35.725Z,15.00
2019-02-09T15:55:43.146Z,11.60
2019-02-09T16:00:51.201Z,11.33
2019-02-09T16:05:57.157Z,14.57
2019-02-09T16:11:04.172Z,13.60
2019-02-09T16:16:11.980Z,16.00
2019-02-09T16:21:20.009Z,13.00
2019-02-09T16:26:31.230Z,15.83
2019-02-09T16:31:40.078Z,16.43
2019-02-09T16:36:50.446Z,14.10
2019-02-09T16:41:58.641Z,13.83
2019-02-09T16:47:05.228Z,17.57
2019-02-09T16:52:15.331Z,17.60
2019-02-09T16:57:23.725Z,13.80
2019-02-09T17:02:31.510Z,17.83
2019-02-09T17:07:37.715Z,17.62
2019-02-09T17:12:45.958Z,11.23
2019-02-09T17:17:57.638Z,18.13
2019-02-09T17:23:05.890Z,19.10
2019-02-09T17:28:15.691Z,19.05
2019-02-09T17:33:23.007Z,13.27
2019-02-09T17:38:33.308Z,14.13
2019-02-09T17:43:36.181Z,15.07
2019-02-09T17:48:44.236Z,15.40
2019-02-09T17:53:50.948Z,12.63
2019-02-09T17:58:56.580Z,14.83
2019-02-09T18:04:02.608Z,14.47
2019-02-09T18:09:10.823Z,16.40
2019-02-09T18:14:27.713Z,14.67
2019-02-09T18:19:38.177Z,12.17
2019-02-09T18:24:45.006Z,18.23
2019-02-09T18:29:51.653Z,12.23
2019-02-09T18:35:02.329Z,12.00
2019-02-09T18:40:15.506Z,14.30
2019-02-09T18:45:26.595Z,18.25
2019-02-09T18:50:34.443Z,16.57
2019-02-09T18:55:44.106Z,13.60
2019-02-09T19:00:50.312Z,20.20
2019-02-09T19:05:57.261Z,18.70
2019-02-09T19:11:07.066Z,15.13
2019-02-09T19:16:13.561Z,13.13
2019-02-09T19:21:21.222Z,20.87
2019-02-09T19:26:27.691Z,19.63
2019-02-09T19:31:37.372Z,18.07
2019-02-09T19:36:44.004Z,15.87
2019-02-09T19:41:53.447Z,15.00
2019-02-09T19:47:02.744Z,18.17
2019-02-09T19:52:11.499Z,18.10
2019-02-09T19:57:22.978Z,18.50
2019-02-09T20:02:33.504Z,14.53
2019-02-09T20:07:42.931Z,16.30
2019-02-09T20:15:31.335Z,17.57
2019-02-09T20:20:37.967Z,15.77
2019-02-09T20:25:46.484Z,14.67
2019-02-09T20:30:58.893Z,16.23
2019-02-09T20:36:27.533Z,15.37
2019-02-09T20:41:35.004Z,21.40
2019-02-09T20:46:40.743Z,17.37
2019-02-09T20:51:53.288Z,16.60
2019-02-09T20:57:01.006Z,13.80
2019-02-09T21:02:11.264Z,19.37
2019-02-09T21:07:24.305Z,21.23
2019-02-09T21:12:26.494Z,13.50
2019-02-09T21:17:33.685Z,15.63
2019-02-09T21:22:42.898Z,19.00
2019-02-09T21:27:55.238Z,14.97
2019-02-09T21:33:04.971Z,17.17
2019-02-09T21:38:12.314Z,16.37
2019-02-09T21:43:19.458Z,13.90
2019-02-09T21:48:26.440Z,14.20
2019-02-09T21:53:36.282Z,16.80
2019-02-09T21:58:45.006Z,11.17
2019-02-09T22:03:53.201Z,14.73
2019-02-09T22:09:02.368Z,11.70
2019-02-09T22:14:09.300Z,17.53
2019-02-09T22:19:17.886Z,13.07
2019-02-09T22:24:26.755Z,11.80
2019-02-09T22:29:36.549Z,15.67
2019-02-09T22:34:45.600Z,11.67
2019-02-09T22:39:55.602Z,14.73
2019-02-09T22:45:03.373Z,13.37
2019-02-09T22:50:19.201Z,14.83
2019-02-09T22:55:24.068Z,15.43
2019-02-09T23:01:11.972Z,13.17
2019-02-09T23:06:43.106Z,13.23
2019-02-09T23:11:52.325Z,13.83
2019-02-09T23:17:02.741Z,13.73
2019-02-09T23:22:09.753Z,12.63
2019-02-09T23:27:18.869Z,17.63
2019-02-09T23:32:27.645Z,11.07
2019-02-09T23:37:34.922Z,15.50
2019-02-09T23:42:43.644Z,12.53
2019-02-09T23:47:52.297Z,13.13
2019-02-09T23:53:01.144Z,11.20
2019-02-09T23:58:12.484Z,14.67
